createdAt,value
2022-11-04T00:01:05.142Z,10.80
2022-11-04T00:04:02.879Z,11.60
2022-11-04T00:06:59.922Z,11.00
2022-11-04T00:09:56.793Z,15.80
2022-11-04T00:12:53.707Z,15.00
2022-11-04T00:16:09.804Z,11.00
2022-11-04T00:19:07.037Z,18.40
2022-11-04T00:22:23.152Z,16.00
2022-11-04T00:25:38.463Z,17.00
2022-11-04T00:28:44.475Z,15.60
2022-11-04T00:32:00.705Z,16.40
2022-11-04T00:34:57.952Z,13.00
2022-11-04T00:37:55.062Z,16.20
2022-11-04T00:40:51.633Z,14.00
2022-11-04T00:43:49.096Z,15.00
2022-11-04T00:46:45.837Z,14.80
2022-11-04T00:49:42.662Z,15.60
2022-11-04T00:52:40.181Z,15.60
2022-11-04T00:55:36.689Z,17.40
2022-11-04T00:58:33.496Z,16.60
2022-11-04T01:01:31.230Z,12.00
2022-11-04T01:04:28.883Z,14.60
2022-11-04T01:07:26.120Z,14.40
2022-11-04T01:10:23.109Z,11.00
2022-11-04T01:13:20.142Z,9.00
2022-11-04T01:16:16.799Z,6.40
2022-11-04T01:19:14.159Z,7.00
2022-11-04T01:22:11.019Z,8.20
2022-11-04T01:25:08.999Z,6.00
2022-11-04T01:28:06.428Z,6.00
2022-11-04T01:31:08.004Z,7.00
2022-11-04T01:34:04.912Z,7.20
2022-11-04T01:37:02.063Z,6.00
2022-11-04T01:39:58.583Z,5.00
2022-11-04T01:42:55.923Z,1.00
2022-11-04T01:45:56.397Z,3.40
2022-11-04T01:48:54.562Z,2.00
2022-11-04T01:51:54.116Z,2.00
2022-11-04T01:54:50.855Z,2.60
2022-11-04T01:57:48.856Z,3.00
2022-11-04T02:00:45.740Z,2.00
2022-11-04T02:03:54.817Z,1.60
2022-11-04T02:07:03.632Z,2.40
2022-11-04T02:10:00.702Z,5.00
2022-11-04T02:12:59.846Z,5.20
2022-11-04T02:16:18.633Z,5.00
2022-11-04T02:19:21.964Z,5.00
2022-11-04T02:22:35.447Z,5.00
2022-11-04T02:25:47.959Z,10.20
2022-11-04T02:29:03.316Z,8.60
2022-11-04T02:32:19.121Z,7.00
2022-11-04T02:35:42.277Z,8.80
2022-11-04T02:38:42.691Z,10.20
2022-11-04T02:41:40.097Z,7.00
2022-11-04T02:44:40.945Z,8.40
2022-11-04T02:47:39.001Z,6.00
2022-11-04T02:50:44.135Z,9.40
2022-11-04T02:53:45.790Z,10.00
2022-11-04T02:56:45.716Z,10.00
2022-11-04T03:00:05.280Z,9.00
2022-11-04T03:03:12.650Z,12.80
2022-11-04T03:06:10.371Z,11.60
2022-11-04T03:09:06.742Z,11.00
2022-11-04T03:12:06.923Z,14.20
2022-11-04T03:15:06.329Z,15.00
2022-11-04T03:18:24.006Z,14.00
2022-11-04T03:21:20.912Z,12.20
2022-11-04T03:24:17.851Z,15.80
2022-11-04T03:27:27.936Z,14.20
2022-11-04T03:30:24.944Z,13.40
2022-11-04T03:33:54.649Z,18.00
2022-11-04T03:36:52.054Z,20.20
2022-11-04T03:39:48.777Z,16.80
2022-11-04T03:42:57.034Z,17.80
2022-11-04T03:45:54.681Z,13.80
2022-11-04T03:48:53.295Z,16.20
2022-11-04T03:51:51.063Z,15.60
2022-11-04T03:54:47.791Z,15.20
2022-11-04T03:57:48.031Z,11.60
2022-11-04T04:00:49.769Z,17.80
2022-11-04T04:03:56.523Z,14.00
2022-11-04T04:06:56.233Z,13.80
2022-11-04T04:10:28.263Z,10.60
2022-11-04T04:13:43.258Z,10.40
2022-11-04T04:16:42.662Z,14.00
2022-11-04T04:19:40.584Z,12.40
2022-11-04T04:22:43.553Z,13.20
2022-11-04T04:25:59.824Z,14.40
2022-11-04T04:28:56.915Z,13.80
2022-11-04T04:31:57.707Z,13.80
2022-11-04T04:35:14.935Z,13.60
2022-11-04T04:38:46.061Z,14.80
2022-11-04T04:42:01.582Z,14.20
2022-11-04T04:45:03.498Z,16.00
2022-11-04T04:48:01.144Z,17.80
2022-11-04T04:50:57.787Z,17.00
2022-11-04T04:53:55.117Z,18.40
2022-11-04T04:56:52.337Z,17.00
2022-11-04T04:59:48.796Z,17.00
2022-11-04T05:02:46.008Z,17.40
2022-11-04T05:05:43.104Z,15.60
2022-11-04T05:08:39.965Z,18.00
2022-11-04T05:11:36.808Z,14.60
2022-11-04T05:14:34.079Z,18.00
2022-11-04T05:17:30.902Z,15.20
2022-11-04T05:20:29.034Z,18.40
2022-11-04T05:23:26.277Z,19.80
2022-11-04T05:26:23.229Z,18.20
2022-11-04T05:29:20.306Z,16.40
2022-11-04T05:32:17.085Z,15.20
2022-11-04T05:35:14.497Z,17.00
2022-11-04T05:38:11.914Z,22.00
2022-11-04T05:41:10.639Z,11.40
2022-11-04T05:44:09.690Z,13.80
2022-11-04T05:47:06.938Z,18.20
2022-11-04T05:50:04.174Z,19.60
2022-11-04T05:53:01.017Z,20.00
2022-11-04T05:55:58.349Z,16.00
2022-11-04T05:58:55.323Z,21.60
2022-11-04T06:01:52.135Z,17.60
2022-11-04T06:04:49.061Z,19.40
2022-11-04T06:07:45.996Z,15.80
2022-11-04T06:10:43.755Z,20.40
2022-11-04T06:13:40.848Z,18.80
2022-11-04T06:16:38.075Z,19.20
2022-11-04T06:19:34.980Z,19.80
2022-11-04T06:22:31.842Z,23.20
2022-11-04T06:25:31.368Z,21.40
2022-11-04T06:28:29.028Z,21.80
2022-11-04T06:31:27.358Z,20.20
2022-11-04T06:34:24.335Z,24.20
2022-11-04T06:37:21.274Z,18.60
2022-11-04T06:40:18.157Z,19.40
2022-11-04T06:43:15.247Z,22.80
2022-11-04T06:46:26.293Z,19.00
2022-11-04T06:49:23.464Z,22.60
2022-11-04T06:52:20.019Z,24.40
2022-11-04T06:55:16.903Z,24.60
2022-11-04T06:58:13.811Z,25.40
2022-11-04T07:01:15.879Z,22.20
2022-11-04T07:04:16.288Z,22.80
2022-11-04T07:07:13.125Z,18.80
2022-11-04T07:10:10.099Z,24.60
2022-11-04T07:13:07.391Z,17.20
2022-11-04T07:16:08.052Z,19.60
2022-11-04T07:19:05.528Z,23.40
2022-11-04T07:22:03.714Z,23.60
2022-11-04T07:25:01.282Z,24.00
2022-11-04T07:28:01.225Z,21.20
2022-11-04T07:30:59.434Z,23.40
2022-11-04T07:33:56.332Z,19.20
2022-11-04T07:36:53.176Z,19.60
2022-11-04T07:39:50.084Z,22.00
2022-11-04T07:42:47.117Z,24.00
2022-11-04T07:45:47.138Z,25.60
2022-11-04T07:48:44.067Z,23.40
2022-11-04T07:51:41.163Z,22.40
2022-11-04T07:54:38.102Z,18.60
2022-11-04T07:57:35.230Z,21.40
2022-11-04T08:00:32.159Z,19.00
2022-11-04T08:03:29.085Z,22.40
2022-11-04T08:06:26.299Z,21.40
2022-11-04T08:09:23.568Z,19.20
2022-11-04T08:12:23.900Z,24.40
2022-11-04T08:15:21.385Z,20.00
2022-11-04T08:18:18.271Z,28.40
2022-11-04T08:21:15.358Z,23.40
2022-11-04T08:24:12.044Z,29.20
2022-11-04T08:27:10.119Z,28.20
2022-11-04T08:30:07.674Z,29.00
2022-11-04T08:33:05.773Z,23.00
2022-11-04T08:36:09.454Z,30.60
2022-11-04T08:39:10.924Z,18.60
2022-11-04T08:42:08.179Z,23.20
2022-11-04T08:45:05.727Z,26.60
2022-11-04T08:48:05.895Z,29.80
2022-11-04T08:51:03.405Z,29.60
2022-11-04T08:54:00.192Z,29.40
2022-11-04T08:56:56.968Z,28.00
2022-11-04T08:59:54.531Z,28.40
2022-11-04T09:02:51.640Z,18.20
2022-11-04T09:05:49.289Z,23.60
2022-11-04T09:08:46.324Z,24.00
2022-11-04T09:11:43.699Z,27.40
2022-11-04T09:14:41.320Z,19.40
2022-11-04T09:17:38.567Z,22.80
2022-11-04T09:20:38.534Z,26.00
2022-11-04T09:23:35.705Z,23.80
2022-11-04T09:26:33.456Z,27.40
2022-11-04T09:29:33.775Z,24.20
2022-11-04T09:32:31.232Z,29.60
2022-11-04T09:35:28.268Z,33.60
2022-11-04T09:38:25.871Z,28.00
2022-11-04T09:41:51.227Z,27.60
2022-11-04T09:45:21.194Z,27.60
2022-11-04T09:48:28.582Z,25.60
2022-11-04T09:51:48.368Z,24.80
2022-11-04T09:55:11.398Z,26.40
2022-11-04T09:58:09.750Z,29.20
2022-11-04T10:01:10.469Z,25.00
2022-11-04T10:04:32.662Z,20.80
2022-11-04T10:07:51.263Z,30.80
2022-11-04T10:11:31.396Z,22.00
2022-11-04T10:14:36.964Z,25.40
2022-11-04T10:17:41.127Z,30.60
2022-11-04T10:20:53.350Z,23.20
2022-11-04T10:24:07.641Z,20.00
2022-11-04T10:27:05.382Z,23.60
2022-11-04T10:30:15.909Z,15.00
2022-11-04T10:33:20.486Z,20.40
2022-11-04T10:36:17.594Z,18.60
2022-11-04T10:39:18.520Z,21.60
2022-11-04T10:42:17.648Z,18.00
2022-11-04T10:45:15.502Z,20.00
2022-11-04T10:48:16.543Z,23.20
2022-11-04T10:51:13.132Z,21.40
2022-11-04T10:54:10.765Z,18.20
2022-11-04T10:57:08.525Z,19.80
2022-11-04T11:00:06.009Z,20.20
2022-11-04T11:03:03.202Z,19.20
2022-11-04T11:06:10.812Z,18.60
2022-11-04T11:09:31.344Z,19.20
2022-11-04T11:12:50.466Z,21.40
2022-11-04T11:15:49.818Z,15.20
2022-11-04T11:19:12.731Z,17.60
2022-11-04T11:22:31.655Z,20.80
2022-11-04T11:25:35.416Z,19.60
2022-11-04T11:28:38.049Z,17.60
2022-11-04T11:31:39.209Z,16.20
2022-11-04T11:34:37.719Z,14.80
2022-11-04T11:37:34.281Z,17.60
2022-11-04T11:40:57.340Z,14.00
2022-11-04T11:44:06.065Z,15.60
2022-11-04T11:47:05.394Z,12.40
2022-11-04T11:50:20.412Z,17.80
2022-11-04T11:53:18.478Z,15.20
2022-11-04T11:56:52.128Z,16.20
2022-11-04T12:10:49.777Z,12.00
2022-11-04T12:13:50.014Z,11.00
2022-11-04T12:17:03.920Z,14.20
2022-11-04T12:20:23.172Z,10.40
2022-11-04T12:23:29.319Z,12.20
2022-11-04T12:26:34.872Z,11.00
2022-11-04T12:30:10.521Z,11.40
2022-11-04T12:33:39.475Z,11.00
2022-11-04T12:36:58.087Z,11.00
2022-11-04T12:40:11.782Z,13.00
2022-11-04T12:43:29.938Z,16.40
2022-11-04T12:46:30.539Z,16.40
2022-11-04T12:49:42.727Z,14.40
2022-11-04T12:53:11.844Z,11.00
2022-11-04T12:56:14.758Z,12.20
2022-11-04T12:59:33.429Z,15.80
2022-11-04T13:03:05.602Z,14.80
2022-11-04T13:06:06.122Z,12.60
2022-11-04T13:09:06.703Z,16.80
2022-11-04T13:12:13.621Z,18.40
2022-11-04T13:15:22.435Z,17.00
2022-11-04T13:18:20.348Z,16.80
2022-11-04T13:21:19.817Z,8.00
2022-11-04T13:24:31.756Z,15.80
2022-11-04T13:27:35.515Z,12.80
2022-11-04T13:31:06.182Z,13.00
2022-11-04T13:34:23.051Z,11.80
2022-11-04T13:37:40.818Z,12.00
2022-11-04T13:40:40.525Z,12.20
2022-11-04T13:43:40.927Z,16.40
2022-11-04T13:46:38.559Z,12.20
2022-11-04T13:49:37.205Z,11.40
2022-11-04T13:52:36.334Z,14.60
2022-11-04T13:55:33.123Z,11.60
2022-11-04T13:58:30.589Z,15.80
2022-11-04T14:01:29.834Z,10.80
2022-11-04T14:04:31.537Z,10.00
2022-11-04T14:08:02.948Z,13.00
2022-11-04T14:11:10.773Z,6.00
2022-11-04T14:14:15.707Z,9.20
2022-11-04T14:17:34.090Z,8.00
2022-11-04T14:20:31.852Z,6.40
2022-11-04T14:23:28.359Z,8.00
2022-11-04T14:26:47.097Z,10.00
2022-11-04T14:29:52.263Z,7.80
2022-11-04T14:32:49.487Z,11.00
2022-11-04T14:35:46.487Z,9.80
2022-11-04T14:38:43.426Z,11.20
2022-11-04T14:41:40.299Z,10.20
2022-11-04T14:44:45.735Z,7.00
2022-11-04T14:47:48.479Z,8.00
2022-11-04T14:50:46.581Z,7.40
2022-11-04T14:53:43.400Z,10.40
2022-11-04T14:56:41.672Z,6.20
2022-11-04T14:59:38.336Z,10.20
2022-11-04T15:02:35.832Z,7.60
2022-11-04T15:05:36.322Z,8.60
2022-11-04T15:08:34.777Z,8.40
2022-11-04T15:11:49.934Z,10.40
2022-11-04T15:14:46.556Z,8.00
2022-11-04T15:17:43.540Z,7.80
2022-11-04T15:20:52.606Z,11.80
2022-11-04T15:23:51.167Z,10.60
2022-11-04T15:26:51.953Z,11.40
2022-11-04T15:30:00.383Z,11.20
2022-11-04T15:33:00.066Z,7.80
2022-11-04T15:35:57.703Z,11.00
2022-11-04T15:38:58.523Z,8.20
2022-11-04T15:42:16.232Z,10.60
2022-11-04T15:45:22.490Z,7.80
2022-11-04T15:48:33.747Z,12.00
2022-11-04T15:51:34.383Z,8.20
2022-11-04T15:54:33.583Z,12.00
2022-11-04T15:57:34.650Z,9.60
2022-11-04T16:00:31.606Z,10.80
2022-11-04T16:03:28.702Z,9.20
2022-11-04T16:06:34.840Z,10.60
2022-11-04T16:09:32.148Z,14.40
2022-11-04T16:12:35.321Z,10.20
2022-11-04T16:15:40.217Z,11.40
2022-11-04T16:18:58.923Z,11.00
2022-11-04T16:22:03.394Z,17.00
2022-11-04T16:25:01.472Z,15.80
2022-11-04T16:28:00.511Z,16.40
2022-11-04T16:31:02.477Z,9.60
2022-11-04T16:33:59.905Z,14.00
2022-11-04T16:36:58.899Z,10.00
2022-11-04T16:39:58.435Z,11.00
2022-11-04T16:42:56.183Z,8.80
2022-11-04T16:45:54.376Z,7.40
2022-11-04T16:48:51.601Z,7.80
2022-11-04T16:51:53.792Z,7.20
2022-11-04T16:54:50.701Z,7.60
2022-11-04T16:57:47.661Z,5.00
2022-11-04T17:00:44.839Z,3.00
2022-11-04T17:03:43.224Z,4.60
2022-11-04T17:06:40.790Z,4.40
2022-11-04T17:09:37.609Z,2.80
2022-11-04T17:12:34.661Z,1.20
2022-11-04T17:15:31.953Z,5.00
2022-11-04T17:18:30.676Z,3.00
2022-11-04T17:21:28.624Z,3.00
2022-11-04T17:24:25.581Z,7.20
2022-11-04T17:27:22.554Z,8.00
2022-11-04T17:30:21.873Z,7.00
2022-11-04T17:33:19.168Z,7.80
2022-11-04T17:36:18.082Z,12.00
2022-11-04T17:39:15.479Z,11.20
2022-11-04T17:42:31.231Z,12.00
2022-11-04T17:45:28.553Z,12.80
2022-11-04T17:48:25.599Z,14.20
2022-11-04T17:51:23.089Z,12.20
2022-11-04T17:54:21.377Z,12.20
2022-11-04T17:57:19.067Z,17.60
2022-11-04T18:00:17.126Z,12.80
2022-11-04T18:03:14.749Z,12.20
2022-11-04T18:06:12.065Z,12.00
2022-11-04T18:09:11.012Z,9.20
2022-11-04T18:12:26.298Z,11.40
2022-11-04T18:15:23.506Z,10.60
2022-11-04T18:18:20.895Z,12.00
2022-11-04T18:21:17.828Z,11.00
2022-11-04T18:24:15.096Z,8.40
2022-11-04T18:27:12.479Z,6.60
2022-11-04T18:30:10.460Z,4.20
2022-11-04T18:33:08.335Z,6.20
2022-11-04T18:36:06.105Z,1.00
2022-11-04T18:39:06.607Z,1.80
2022-11-04T18:42:03.423Z,3.40
2022-11-04T18:45:00.833Z,2.40
2022-11-04T18:47:57.869Z,5.00
2022-11-04T18:50:54.361Z,2.60
2022-11-04T18:53:52.017Z,3.00
2022-11-04T18:56:48.882Z,3.00
2022-11-04T18:59:46.158Z,3.00
2022-11-04T19:02:43.609Z,2.00
2022-11-04T19:05:41.841Z,3.00
2022-11-04T19:08:42.373Z,3.00
2022-11-04T19:11:42.930Z,5.60
2022-11-04T19:14:40.361Z,5.60
2022-11-04T19:17:37.794Z,5.00
2022-11-04T19:20:35.672Z,3.00
2022-11-04T19:23:33.269Z,3.00
2022-11-04T19:26:32.794Z,6.00
2022-11-04T19:29:30.035Z,6.80
2022-11-04T19:32:26.785Z,6.20
2022-11-04T19:35:23.709Z,5.40
2022-11-04T19:38:22.170Z,6.20
2022-11-04T19:41:38.268Z,7.20
2022-11-04T19:44:35.562Z,3.80
2022-11-04T19:47:33.068Z,6.00
2022-11-04T19:50:29.618Z,5.80
2022-11-04T19:53:26.473Z,5.40
2022-11-04T19:56:24.256Z,8.00
2022-11-04T19:59:21.852Z,7.40
2022-11-04T20:02:19.204Z,6.20
2022-11-04T20:05:16.848Z,6.00
2022-11-04T20:08:14.255Z,5.00
2022-11-04T20:11:12.963Z,7.40
2022-11-04T20:14:09.996Z,5.00
2022-11-04T20:17:07.029Z,6.40
2022-11-04T20:20:04.270Z,7.40
2022-11-04T20:23:01.596Z,7.40
2022-11-04T20:26:12.873Z,7.80
2022-11-04T20:29:12.033Z,9.00
2022-11-04T20:32:09.572Z,7.60
2022-11-04T20:35:07.333Z,7.00
2022-11-04T20:38:04.764Z,11.40
2022-11-04T20:41:03.668Z,11.00
2022-11-04T20:44:00.852Z,8.60
2022-11-04T20:46:57.617Z,9.00
2022-11-04T20:49:55.042Z,8.40
2022-11-04T20:52:51.974Z,6.00
2022-11-04T20:55:49.128Z,10.00
2022-11-04T20:58:48.360Z,7.00
2022-11-04T21:01:46.494Z,8.60
2022-11-04T21:04:43.987Z,6.80
2022-11-04T21:07:40.861Z,7.00
2022-11-04T21:10:38.037Z,9.00
2022-11-04T21:13:34.903Z,9.00
2022-11-04T21:16:31.775Z,10.00
2022-11-04T21:19:28.521Z,9.00
2022-11-04T21:22:25.963Z,9.60
2022-11-04T21:25:23.444Z,9.60
2022-11-04T21:28:20.741Z,8.20
2022-11-04T21:31:17.812Z,10.40
2022-11-04T21:34:15.034Z,9.00
2022-11-04T21:37:12.084Z,9.20
2022-11-04T21:40:09.300Z,10.00
2022-11-04T21:43:07.017Z,8.60
2022-11-04T21:46:08.826Z,5.80
2022-11-04T21:49:06.037Z,10.00
2022-11-04T21:52:02.897Z,12.80
2022-11-04T21:54:59.711Z,6.00
2022-11-04T21:57:57.264Z,12.80
2022-11-04T22:00:57.261Z,11.80
2022-11-04T22:03:59.513Z,12.80
2022-11-04T22:06:56.605Z,9.60
2022-11-04T22:09:53.895Z,10.40
2022-11-04T22:12:51.459Z,10.40
2022-11-04T22:16:01.601Z,10.00
2022-11-04T22:19:00.884Z,10.00
2022-11-04T22:21:57.856Z,12.40
2022-11-04T22:25:03.285Z,6.20
2022-11-04T22:28:00.785Z,12.80
2022-11-04T22:31:03.954Z,9.20
2022-11-04T22:34:01.266Z,12.80
2022-11-04T22:36:57.838Z,13.00
2022-11-04T22:39:54.992Z,10.20
2022-11-04T22:42:52.054Z,12.00
2022-11-04T22:45:48.684Z,9.60
2022-11-04T22:48:46.210Z,9.60
2022-11-04T22:51:43.221Z,10.00
2022-11-04T22:54:39.767Z,13.00
2022-11-04T22:57:36.726Z,10.80
2022-11-04T23:00:33.720Z,10.20
2022-11-04T23:03:31.199Z,12.40
2022-11-04T23:06:28.935Z,12.20
2022-11-04T23:09:25.954Z,9.40
2022-11-04T23:12:41.204Z,13.00
2022-11-04T23:15:59.541Z,11.60
2022-11-04T23:18:56.888Z,13.00
2022-11-04T23:22:13.186Z,12.80
2022-11-04T23:25:10.069Z,11.80
2022-11-04T23:28:36.023Z,12.40
2022-11-04T23:31:32.710Z,8.00
2022-11-04T23:34:48.216Z,9.40
2022-11-04T23:37:44.970Z,9.00
2022-11-04T23:40:42.308Z,9.80
2022-11-04T23:43:38.677Z,12.00
2022-11-04T23:46:54.740Z,13.60
2022-11-04T23:50:10.966Z,11.00
2022-11-04T23:53:26.529Z,9.00
2022-11-04T23:56:42.443Z,11.20
2022-11-04T23:59:58.650Z,12.40
